Time;durP1;ratioP1;P1;durP2;ratioP2;P2;SDS_P1;SDS_P2;PMS_P1;PMS_P2;Temp;Humidity;BMP_temperature;BMP_pressure;BME280_temperature;BME280_humidity;BME280_pressure;Samples;Min_cycle;Max_cycle;Signal;HPM_P1;HPM_P2
2021/01/20 00:00:36;;;;;;;17.17;5.88;;;6.00;60.20;;;;;;6323728;28;20120;-70
2021/01/20 00:03:37;;;;;;;20.58;5.90;;;5.90;60.30;;;;;;6318199;28;20086;-71
2021/01/20 00:06:38;;;;;;;12.98;5.50;;;5.90;60.30;;;;;;6292682;28;20031;-71
2021/01/20 00:09:42;;;;;;;9.50;5.07;;;5.90;60.40;;;;;;6319254;28;20350;-70
2021/01/20 00:12:47;;;;;;;15.68;6.35;;;5.80;60.40;;;;;;6289221;28;20492;-70
2021/01/20 00:15:48;;;;;;;14.98;6.65;;;5.80;60.70;;;;;;6294460;28;20041;-72
2021/01/20 00:18:49;;;;;;;9.23;4.90;;;5.80;60.80;;;;;;6291636;28;20075;-70
2021/01/20 00:21:50;;;;;;;15.30;5.70;;;5.70;60.90;;;;;;6294133;28;20040;-72
2021/01/20 00:24:51;;;;;;;10.20;4.78;;;5.70;61.50;;;;;;6289832;28;20033;-72
2021/01/20 00:27:52;;;;;;;15.00;4.88;;;5.70;61.50;;;;;;6296834;28;20461;-70
2021/01/20 00:30:56;;;;;;;13.52;5.72;;;5.80;61.40;;;;;;6323842;28;20037;-71
2021/01/20 00:33:57;;;;;;;13.38;5.38;;;5.80;61.20;;;;;;6291435;28;20043;-71
2021/01/20 00:36:58;;;;;;;10.80;4.72;;;5.90;61.10;;;;;;6295351;28;20059;-71
2021/01/20 00:39:58;;;;;;;13.95;4.40;;;5.90;60.90;;;;;;6295660;28;20362;-70
2021/01/20 00:43:02;;;;;;;10.95;4.78;;;5.90;61.60;;;;;;6277398;28;20033;-70
2021/01/20 00:46:06;;;;;;;10.80;4.65;;;6.00;60.70;;;;;;6282137;28;20033;-71
2021/01/20 00:49:07;;;;;;;10.52;4.55;;;6.00;60.50;;;;;;6287878;28;20048;-71
2021/01/20 00:52:08;;;;;;;7.65;4.18;;;6.00;60.10;;;;;;6282108;28;20044;-71
2021/01/20 00:55:10;;;;;;;8.50;4.30;;;6.10;59.90;;;;;;6257083;28;20339;-69
2021/01/20 00:58:11;;;;;;;9.02;4.20;;;6.20;59.70;;;;;;6271529;28;20044;-70
2021/01/20 01:01:12;;;;;;;11.00;3.88;;;6.20;59.50;;;;;;6252895;28;20042;-70
2021/01/20 01:04:14;;;;;;;6.70;2.28;;;6.30;59.10;;;;;;6243184;28;20033;-71
2021/01/20 01:07:15;;;;;;;5.10;3.22;;;6.30;58.80;;;;;;6257910;28;20029;-71
2021/01/20 01:10:16;;;;;;;7.47;3.58;;;6.40;58.60;;;;;;6260305;28;20040;-71
2021/01/20 01:13:35;;;;;;;8.70;3.70;;;6.40;58.20;;;;;;6262076;28;20108;-70
2021/01/20 01:16:55;;;;;;;7.38;3.03;;;6.50;58.10;;;;;;6264413;28;20417;-71
2021/01/20 01:20:12;;;;;;;8.85;3.15;;;6.60;57.80;;;;;;6264877;28;20437;-70
2021/01/20 01:23:14;;;;;;;10.15;3.20;;;6.70;56.80;;;;;;6258583;28;20053;-71
2021/01/20 01:26:15;;;;;;;7.60;3.05;;;6.80;56.40;;;;;;6282547;28;20040;-72
2021/01/20 01:29:16;;;;;;;10.27;4.35;;;6.90;56.50;;;;;;6281399;28;20037;-71
2021/01/20 01:32:34;;;;;;;9.02;4.07;;;7.00;55.60;;;;;;6288975;28;20127;-70
2021/01/20 01:35:39;;;;;;;5.65;3.05;;;7.00;55.60;;;;;;6276210;28;20045;-71
2021/01/20 01:38:41;;;;;;;7.75;3.03;;;7.00;55.80;;;;;;6278451;28;20055;-71
2021/01/20 01:41:45;;;;;;;6.80;3.63;;;7.00;56.10;;;;;;6309500;28;20199;-71
2021/01/20 01:44:47;;;;;;;8.80;4.30;;;6.90;56.40;;;;;;6284761;28;20134;-72
2021/01/20 01:47:50;;;;;;;9.02;3.53;;;6.80;56.50;;;;;;6309947;28;20040;-71
2021/01/20 01:50:52;;;;;;;6.65;2.22;;;6.80;56.50;;;;;;6289705;28;20051;-71
2021/01/20 01:53:53;;;;;;;8.20;3.60;;;6.80;56.20;;;;;;6287660;28;20041;-70
2021/01/20 01:57:02;;;;;;;5.22;2.92;;;6.90;55.60;;;;;;6320005;28;20040;-70
2021/01/20 02:00:08;;;;;;;6.88;3.10;;;6.90;55.50;;;;;;6299136;28;20041;-70
2021/01/20 02:03:15;;;;;;;11.20;3.45;;;7.00;55.20;;;;;;6280781;28;20035;-70
2021/01/20 02:06:18;;;;;;;9.93;2.72;;;7.10;54.70;;;;;;6295501;28;20048;-70
2021/01/20 02:09:23;;;;;;;10.27;3.55;;;7.10;54.60;;;;;;6325697;28;20416;-71
2021/01/20 02:12:58;;;;;;;8.52;3.50;;;7.20;54.50;;;;;;6320496;28;20029;-72
2021/01/20 02:16:17;;;;;;;3.63;1.77;;;7.10;54.40;;;;;;6264596;28;20044;-71
2021/01/20 02:19:27;;;;;;;2.60;1.65;;;7.20;54.10;;;;;;6323186;28;20096;-71
2021/01/20 02:22:42;;;;;;;4.88;2.17;;;7.30;53.80;;;;;;6324401;28;20046;-70
2021/01/20 02:26:37;;;;;;;3.25;2.00;;;7.40;53.70;;;;;;6286288;28;20040;-70
2021/01/20 02:30:11;;;;;;;3.13;1.40;;;7.50;53.60;;;;;;6269110;28;20053;-71
2021/01/20 02:33:31;;;;;;;2.22;1.88;;;7.50;53.50;;;;;;6254763;28;20045;-71
2021/01/20 02:36:40;;;;;;;5.13;2.53;;;7.60;53.40;;;;;;6251300;28;20128;-71
2021/01/20 02:40:01;;;;;;;5.07;2.70;;;7.60;53.30;;;;;;6255608;28;20036;-70
2021/01/20 02:43:26;;;;;;;8.55;3.17;;;7.60;53.40;;;;;;6254652;28;20128;-71
2021/01/20 02:46:59;;;;;;;9.40;3.58;;;7.50;53.70;;;;;;6188257;28;20062;-71
2021/01/20 02:50:14;;;;;;;6.30;3.13;;;7.40;54.00;;;;;;6170587;28;20057;-70
2021/01/20 02:53:19;;;;;;;10.43;3.88;;;7.20;54.30;;;;;;6179557;28;20506;-70
2021/01/20 02:56:31;;;;;;;6.63;3.22;;;7.10;54.60;;;;;;6184712;28;20215;-70
2021/01/20 02:59:46;;;;;;;4.78;2.60;;;7.00;54.90;;;;;;6182938;28;20417;-70
2021/01/20 03:03:09;;;;;;;13.18;3.25;;;6.80;55.30;;;;;;6176272;28;20045;-70
2021/01/20 03:06:11;;;;;;;6.00;2.63;;;6.70;55.70;;;;;;6172083;28;20496;-70
2021/01/20 03:09:14;;;;;;;7.57;2.88;;;6.50;55.90;;;;;;6168280;28;20066;-70
2021/01/20 03:12:15;;;;;;;3.90;2.15;;;6.40;56.70;;;;;;6186459;28;20053;-70
2021/01/20 03:15:28;;;;;;;6.63;2.88;;;6.40;56.30;;;;;;6189708;28;20461;-71
2021/01/20 03:18:29;;;;;;;6.28;2.90;;;6.30;56.30;;;;;;6180794;28;20047;-70
2021/01/20 03:21:30;;;;;;;2.28;1.50;;;6.30;56.30;;;;;;6214590;28;20481;-71
2021/01/20 03:24:31;;;;;;;5.85;2.88;;;6.40;56.30;;;;;;6269526;28;20118;-71
2021/01/20 03:27:31;;;;;;;3.47;1.58;;;6.40;56.20;;;;;;6272641;28;20081;-70
2021/01/20 03:30:41;;;;;;;4.68;2.22;;;6.40;56.10;;;;;;6265718;28;20107;-71
2021/01/20 03:38:05;;;;;;;7.38;3.33;;;6.40;56.20;;;;;;6261952;28;20048;-72
2021/01/20 03:41:06;;;;;;;5.53;2.90;;;6.40;56.50;;;;;;6268950;28;20137;-70
2021/01/20 03:44:07;;;;;;;6.05;3.20;;;6.30;56.60;;;;;;6266159;28;20086;-70
2021/01/20 03:47:07;;;;;;;7.90;2.50;;;6.30;57.30;;;;;;6269862;28;20079;-70
2021/01/20 03:50:09;;;;;;;6.60;2.45;;;6.30;57.10;;;;;;6262304;28;20048;-71
2021/01/20 03:53:10;;;;;;;4.05;1.73;;;6.30;57.00;;;;;;6265670;28;20103;-71
2021/01/20 03:56:11;;;;;;;7.18;2.72;;;6.30;56.90;;;;;;6256951;28;20045;-71
2021/01/20 03:59:11;;;;;;;4.88;2.08;;;6.30;57.00;;;;;;6270453;28;20041;-71
2021/01/20 04:02:12;;;;;;;2.58;1.83;;;6.30;56.90;;;;;;6266740;28;20033;-70
2021/01/20 04:05:13;;;;;;;3.80;1.67;;;6.30;57.00;;;;;;6266034;28;20029;-70
2021/01/20 04:08:14;;;;;;;3.88;2.00;;;6.30;57.00;;;;;;6269720;28;20098;-70
2021/01/20 04:11:16;;;;;;;3.00;1.88;;;6.40;57.00;;;;;;6267598;28;20045;-71
2021/01/20 04:14:17;;;;;;;7.68;2.90;;;6.40;56.90;;;;;;6269834;28;20087;-70
2021/01/20 04:17:18;;;;;;;2.28;1.40;;;6.40;56.80;;;;;;6252146;28;20032;-71
2021/01/20 04:20:18;;;;;;;4.13;2.28;;;6.40;56.80;;;;;;6245865;28;20347;-70
2021/01/20 04:23:19;;;;;;;11.93;2.72;;;6.40;56.90;;;;;;6267432;28;20063;-70
2021/01/20 04:26:21;;;;;;;5.95;2.42;;;6.40;57.00;;;;;;6264319;28;20048;-70
2021/01/20 04:29:22;;;;;;;5.80;2.78;;;6.30;57.20;;;;;;6263993;28;20037;-70
2021/01/20 04:32:23;;;;;;;4.25;3.08;;;6.30;57.40;;;;;;6257861;28;20052;-70
2021/01/20 04:35:24;;;;;;;8.15;2.78;;;6.30;57.70;;;;;;6263437;28;20112;-69
2021/01/20 04:38:25;;;;;;;2.95;1.48;;;6.20;57.80;;;;;;6271083;28;20041;-70
2021/01/20 04:41:27;;;;;;;4.97;1.77;;;6.20;57.80;;;;;;6258703;28;20040;-70
2021/01/20 04:44:28;;;;;;;4.55;2.78;;;6.20;57.90;;;;;;6270263;28;20362;-70
2021/01/20 04:47:29;;;;;;;1.95;1.40;;;6.20;57.90;;;;;;6271813;28;20036;-70
2021/01/20 04:50:31;;;;;;;3.75;1.85;;;6.30;57.90;;;;;;6269677;28;20037;-70
2021/01/20 04:53:33;;;;;;;1.20;0.85;;;6.30;57.80;;;;;;6268928;28;20036;-70
2021/01/20 04:56:34;;;;;;;4.15;1.90;;;6.30;57.70;;;;;;6271287;28;20044;-70
2021/01/20 04:59:35;;;;;;;2.83;1.40;;;6.40;57.60;;;;;;6288174;28;20177;-70
2021/01/20 05:02:37;;;;;;;6.30;1.73;;;6.50;57.40;;;;;;6270394;28;20033;-70
2021/01/20 05:05:37;;;;;;;5.00;2.33;;;6.50;57.80;;;;;;6262679;28;20041;-70
2021/01/20 05:08:39;;;;;;;2.63;1.45;;;6.60;57.00;;;;;;6261292;28;20064;-70
2021/01/20 05:11:44;;;;;;;2.28;1.23;;;6.60;56.90;;;;;;6263719;28;20770;-71
2021/01/20 05:14:45;;;;;;;3.00;1.58;;;6.60;56.80;;;;;;6262957;28;20068;-72
2021/01/20 05:18:15;;;;;;;1.63;1.20;;;6.70;56.70;;;;;;6276227;28;20036;-72
2021/01/20 05:21:19;;;;;;;3.15;1.52;;;6.60;56.70;;;;;;6199963;28;20129;-71
2021/01/20 05:24:22;;;;;;;1.98;0.90;;;6.60;56.50;;;;;;6200903;28;20467;-71
2021/01/20 05:27:26;;;;;;;3.05;1.35;;;6.70;56.40;;;;;;6183867;28;20045;-71
2021/01/20 05:30:44;;;;;;;4.35;1.95;;;6.80;56.20;;;;;;6184995;28;20034;-71
2021/01/20 05:33:45;;;;;;;4.00;1.75;;;6.90;56.10;;;;;;6184999;28;20359;-70
2021/01/20 05:37:10;;;;;;;3.72;1.30;;;6.80;56.00;;;;;;6203272;28;20053;-70
2021/01/20 05:40:13;;;;;;;3.10;1.45;;;6.80;55.90;;;;;;6213837;28;20045;-70
2021/01/20 05:43:23;;;;;;;3.97;1.52;;;6.80;55.80;;;;;;6215975;28;20057;-71
2021/01/20 05:46:38;;;;;;;2.50;1.40;;;6.80;56.00;;;;;;6223013;28;20030;-71
2021/01/20 05:49:39;;;;;;;3.22;1.95;;;6.70;55.90;;;;;;6184877;28;20092;-70
2021/01/20 05:52:40;;;;;;;4.32;2.17;;;6.70;55.90;;;;;;6203421;28;20115;-71
2021/01/20 05:55:41;;;;;;;6.18;2.38;;;6.70;56.00;;;;;;6205879;28;20455;-72
2021/01/20 05:58:42;;;;;;;3.67;2.17;;;6.70;56.10;;;;;;6221586;28;20442;-72
2021/01/20 06:01:44;;;;;;;5.40;2.70;;;6.70;56.20;;;;;;6236885;28;20029;-72
2021/01/20 06:04:46;;;;;;;5.65;1.80;;;6.70;56.30;;;;;;6214198;28;20033;-72
2021/01/20 06:07:51;;;;;;;3.20;1.90;;;6.60;56.20;;;;;;6217066;28;20044;-70
2021/01/20 06:10:52;;;;;;;5.10;1.98;;;6.60;56.30;;;;;;6236864;28;20091;-69
2021/01/20 06:13:53;;;;;;;3.78;1.52;;;6.50;56.40;;;;;;6222723;28;20070;-69
2021/01/20 06:17:15;;;;;;;3.75;1.80;;;6.50;56.50;;;;;;6244254;28;20077;-71
2021/01/20 06:20:23;;;;;;;2.55;1.45;;;6.40;56.70;;;;;;6263312;28;20040;-70
2021/01/20 06:23:27;;;;;;;6.00;2.30;;;6.40;56.80;;;;;;6230372;28;20114;-71
2021/01/20 06:26:28;;;;;;;2.60;1.50;;;6.40;56.80;;;;;;6239408;28;20031;-71
2021/01/20 06:29:37;;;;;;;2.25;1.60;;;6.40;56.80;;;;;;6211494;28;20405;-76
2021/01/20 06:32:41;;;;;;;;;;;6.30;56.70;;;;;;6248113;28;20029;-74
2021/01/20 06:35:48;;;;;;;6.38;3.70;;;6.40;56.90;;;;;;6222493;28;20357;-76
2021/01/20 06:38:49;;;;;;;4.00;1.73;;;6.40;56.80;;;;;;6222980;28;20041;-76
2021/01/20 06:41:51;;;;;;;2.25;1.50;;;6.40;56.90;;;;;;6234988;28;20034;-73
2021/01/20 06:45:26;;;;;;;5.28;1.70;;;6.40;56.80;;;;;;6220276;28;20030;-79
2021/01/20 06:48:28;;;;;;;2.90;2.03;;;6.40;56.80;;;;;;6212654;28;20028;-77
2021/01/20 06:51:32;;;;;;;5.95;2.45;;;6.40;56.70;;;;;;6180575;28;20352;-78
2021/01/20 06:54:35;;;;;;;10.80;2.92;;;6.40;56.80;;;;;;6222962;28;20057;-78
2021/01/20 06:57:38;;;;;;;4.30;1.48;;;6.40;56.80;;;;;;6232604;28;20041;-78
2021/01/20 07:00:39;;;;;;;3.15;1.50;;;6.30;56.80;;;;;;6226157;28;20121;-76
2021/01/20 07:03:53;;;;;;;3.20;1.50;;;6.30;56.90;;;;;;6224466;28;20044;-78
2021/01/20 07:06:54;;;;;;;4.00;2.00;;;6.40;56.90;;;;;;6237452;28;20037;-76
2021/01/20 07:09:58;;;;;;;6.63;1.33;;;6.40;56.80;;;;;;6237970;28;20422;-78
2021/01/20 07:13:20;;;;;;;2.45;1.33;;;6.50;56.70;;;;;;6242322;28;20077;-78
2021/01/20 07:16:23;;;;;;;2.45;1.13;;;6.60;56.50;;;;;;6227351;28;20103;-79
2021/01/20 07:19:27;;;;;;;2.47;1.58;;;6.60;56.30;;;;;;6236336;28;20127;-80
2021/01/20 07:22:29;;;;;;;1.80;1.23;;;6.70;56.10;;;;;;6225928;28;20041;-80
2021/01/20 07:25:33;;;;;;;3.50;1.70;;;6.70;55.90;;;;;;6261540;28;20041;-81
2021/01/20 07:28:35;;;;;;;10.27;2.03;;;6.60;55.60;;;;;;6257847;28;20063;-80
2021/01/20 07:31:44;;;;;;;4.20;2.10;;;6.70;55.70;;;;;;6267512;28;20033;-77
2021/01/20 07:34:45;;;;;;;3.70;1.67;;;6.70;55.70;;;;;;6266139;28;20359;-77
2021/01/20 07:37:46;;;;;;;3.30;1.90;;;6.80;55.50;;;;;;6243947;28;20032;-78
2021/01/20 07:40:47;;;;;;;1.25;1.13;;;6.70;55.40;;;;;;6245288;28;20050;-77
2021/01/20 07:44:07;;;;;;;6.68;1.65;;;6.70;55.40;;;;;;6238845;28;20128;-78
2021/01/20 07:47:08;;;;;;;3.92;1.85;;;6.60;55.40;;;;;;6245158;28;20041;-78
2021/01/20 07:50:10;;;;;;;3.85;1.95;;;6.70;55.50;;;;;;6242422;28;20040;-78
2021/01/20 07:53:14;;;;;;;5.80;1.70;;;6.70;55.50;;;;;;6266104;28;20559;-77
2021/01/20 07:56:20;;;;;;;2.88;1.83;;;6.70;55.50;;;;;;6307973;28;20044;-78
2021/01/20 07:59:21;;;;;;;4.03;1.45;;;6.70;55.40;;;;;;6264354;28;20034;-79
2021/01/20 08:02:51;;;;;;;3.47;1.05;;;6.80;55.30;;;;;;6266782;28;20041;-79
2021/01/20 08:09:45;;;;;;;3.17;1.40;;;7.00;55.10;;;;;;6173712;28;20351;-77
2021/01/20 08:12:50;;;;;;;1.40;0.88;;;7.20;55.00;;;;;;6166936;28;20114;-79
2021/01/20 08:15:51;;;;;;;3.63;1.38;;;7.30;54.90;;;;;;6180990;28;20100;-78
2021/01/20 08:18:52;;;;;;;1.90;1.35;;;7.50;54.70;;;;;;6181590;28;20046;-77
2021/01/20 08:21:54;;;;;;;4.70;2.30;;;7.60;54.30;;;;;;6195289;28;20034;-77
2021/01/20 08:24:55;;;;;;;6.68;1.98;;;7.70;54.00;;;;;;6163815;28;20042;-78
2021/01/20 08:27:56;;;;;;;3.33;1.52;;;7.90;53.80;;;;;;6177338;28;20065;-79
2021/01/20 08:30:57;;;;;;;4.15;2.17;;;8.00;53.70;;;;;;6179663;28;20042;-77
2021/01/20 08:34:20;;;;;;;2.10;1.27;;;8.10;53.20;;;;;;6209535;28;20447;-78
2021/01/20 08:37:36;;;;;;;5.25;1.75;;;8.30;53.50;;;;;;6179998;28;20049;-78
2021/01/20 08:40:37;;;;;;;6.22;2.50;;;8.50;53.30;;;;;;6158934;28;20027;-77
2021/01/20 08:43:38;;;;;;;4.32;1.70;;;8.70;53.10;;;;;;6145805;28;20129;-79
2021/01/20 08:46:39;;;;;;;2.80;1.48;;;9.00;52.90;;;;;;6276672;28;20426;-79
2021/01/20 08:49:40;;;;;;;4.18;2.38;;;9.20;52.80;;;;;;6262259;28;20151;-78
2021/01/20 08:52:52;;;;;;;2.70;1.30;;;9.40;52.30;;;;;;6269725;28;20028;-78
2021/01/20 08:55:53;;;;;;;6.30;2.65;;;9.70;51.90;;;;;;6257535;28;20355;-78
2021/01/20 08:58:55;;;;;;;6.82;1.60;;;10.00;51.50;;;;;;6281873;28;20048;-78
2021/01/20 09:02:16;;;;;;;4.93;1.63;;;10.10;50.90;;;;;;6300657;28;20050;-78
2021/01/20 09:05:32;;;;;;;14.75;2.55;;;10.30;50.80;;;;;;6301950;28;20331;-79
2021/01/20 09:08:37;;;;;;;7.38;1.98;;;10.60;50.60;;;;;;6302064;28;20048;-77
2021/01/20 09:11:40;;;;;;;7.18;2.35;;;10.80;50.10;;;;;;6330581;28;20051;-79
2021/01/20 09:14:41;;;;;;;5.30;1.90;;;11.00;49.60;;;;;;6275626;28;20388;-77
2021/01/20 09:17:42;;;;;;;6.13;1.98;;;11.00;49.20;;;;;;6268880;28;20098;-78
2021/01/20 09:20:43;;;;;;;5.35;2.33;;;11.10;49.10;;;;;;6263483;28;20450;-78
2021/01/20 09:23:44;;;;;;;3.85;1.67;;;11.10;48.30;;;;;;6269768;28;20090;-78
2021/01/20 09:26:45;;;;;;;8.15;2.67;;;11.10;48.20;;;;;;6259039;28;20044;-79
2021/01/20 09:29:46;;;;;;;6.00;2.03;;;11.20;48.30;;;;;;6263706;28;20527;-79
2021/01/20 09:32:47;;;;;;;5.82;2.00;;;11.20;48.30;;;;;;6237187;28;20129;-80
2021/01/20 09:35:48;;;;;;;6.78;1.80;;;11.30;48.30;;;;;;6299172;28;20114;-77
2021/01/20 09:38:51;;;;;;;9.50;3.42;;;11.30;48.50;;;;;;6277924;28;20032;-79
2021/01/20 09:41:51;;;;;;;16.30;3.58;;;11.50;48.70;;;;;;6300916;28;20032;-78
2021/01/20 09:44:52;;;;;;;6.20;2.88;;;11.60;48.10;;;;;;6277462;28;20037;-79
2021/01/20 09:47:58;;;;;;;11.82;2.50;;;11.70;48.10;;;;;;6319643;28;20116;-78
2021/01/20 09:50:59;;;;;;;7.10;2.47;;;11.80;48.00;;;;;;6286857;28;20041;-78
2021/01/20 09:54:00;;;;;;;4.10;2.45;;;11.80;48.00;;;;;;6265356;28;20072;-78
2021/01/20 09:57:01;;;;;;;8.10;2.85;;;11.80;47.70;;;;;;6267660;28;20059;-79
2021/01/20 10:00:04;;;;;;;10.77;3.80;;;11.70;47.00;;;;;;6270050;28;20041;-78
2021/01/20 10:03:10;;;;;;;15.32;4.97;;;11.60;47.30;;;;;;6292628;28;20063;-77
2021/01/20 10:06:11;;;;;;;9.75;3.85;;;11.70;47.60;;;;;;6265116;28;20060;-80
2021/01/20 10:09:13;;;;;;;8.05;3.00;;;11.80;47.80;;;;;;6265476;28;20041;-78
2021/01/20 10:12:14;;;;;;;3.38;1.38;;;11.90;47.70;;;;;;6251385;28;20512;-77
2021/01/20 10:15:15;;;;;;;4.78;2.38;;;12.20;48.00;;;;;;6248831;28;20042;-79
2021/01/20 10:18:28;;;;;;;1.67;0.60;;;12.50;48.20;;;;;;6267957;28;20425;-78
2021/01/20 10:21:29;;;;;;;0.80;0.40;;;12.90;47.70;;;;;;6268383;28;20093;-79
2021/01/20 10:24:30;;;;;;;1.98;0.50;;;13.50;46.90;;;;;;6265411;28;20034;-79
2021/01/20 10:27:33;;;;;;;3.13;0.40;;;14.10;46.50;;;;;;6281543;28;20065;-78
2021/01/20 10:30:35;;;;;;;0.95;0.52;;;14.60;45.80;;;;;;6262145;28;20083;-79
2021/01/20 10:33:36;;;;;;;0.68;0.30;;;15.00;43.60;;;;;;6252672;28;20033;-78
2021/01/20 10:36:38;;;;;;;2.42;0.70;;;15.30;42.70;;;;;;6295742;28;20139;-79
2021/01/20 10:39:39;;;;;;;0.47;0.22;;;15.70;42.70;;;;;;6291206;28;20382;-77
2021/01/20 10:42:41;;;;;;;6.30;0.50;;;16.00;42.20;;;;;;6271280;28;20091;-77
2021/01/20 10:45:44;;;;;;;6.07;0.70;;;16.20;41.60;;;;;;6245796;28;20033;-78
2021/01/20 10:48:45;;;;;;;4.90;0.55;;;16.40;40.70;;;;;;6267863;28;20120;-79
2021/01/20 10:51:46;;;;;;;3.08;0.60;;;16.60;40.10;;;;;;6276234;28;20060;-77
2021/01/20 10:54:48;;;;;;;1.45;0.35;;;16.80;39.70;;;;;;6259400;28;20052;-77
2021/01/20 10:57:49;;;;;;;3.53;0.43;;;17.00;39.00;;;;;;6294078;28;20028;-77
2021/01/20 11:00:50;;;;;;;4.50;0.47;;;17.10;38.10;;;;;;6277285;28;20101;-77
2021/01/20 11:03:51;;;;;;;2.45;0.60;;;17.10;37.40;;;;;;6300804;28;20040;-77
2021/01/20 11:06:52;;;;;;;5.65;1.48;;;17.20;36.80;;;;;;6288260;28;20062;-79
2021/01/20 11:09:56;;;;;;;3.00;1.00;;;17.30;37.00;;;;;;6286810;28;20037;-78
2021/01/20 11:12:57;;;;;;;2.25;0.60;;;17.40;37.60;;;;;;6267485;28;20091;-79
2021/01/20 11:15:59;;;;;;;0.85;0.32;;;17.50;37.60;;;;;;6258246;28;20041;-79
2021/01/20 11:19:01;;;;;;;1.02;0.57;;;17.50;36.90;;;;;;6269585;28;20076;-78
2021/01/20 11:22:02;;;;;;;4.55;0.73;;;17.70;37.20;;;;;;6278624;28;20032;-78
2021/01/20 11:25:06;;;;;;;1.58;0.60;;;17.70;36.90;;;;;;6309309;28;20054;-77
2021/01/20 11:28:07;;;;;;;3.38;0.60;;;17.80;37.10;;;;;;6311691;28;20036;-75
2021/01/20 11:31:09;;;;;;;0.73;0.45;;;17.80;37.20;;;;;;6306454;28;20112;-75
2021/01/20 11:34:10;;;;;;;1.17;0.60;;;17.90;35.50;;;;;;6271716;28;20037;-81
2021/01/20 11:37:11;;;;;;;22.40;7.22;;;17.90;35.60;;;;;;6283018;28;20032;-81
2021/01/20 11:40:12;;;;;;;6.05;0.60;;;18.00;35.90;;;;;;6292984;28;20059;-76
2021/01/20 11:43:13;;;;;;;4.03;0.70;;;17.90;34.70;;;;;;6303087;28;20332;-75
2021/01/20 11:46:15;;;;;;;3.03;0.50;;;18.00;34.90;;;;;;6311642;28;20468;-76
2021/01/20 11:49:16;;;;;;;2.03;0.50;;;18.10;35.00;;;;;;6295221;28;20024;-76
2021/01/20 11:52:17;;;;;;;3.72;0.95;;;18.20;33.90;;;;;;6326952;28;20118;-77
2021/01/20 11:55:19;;;;;;;5.30;0.77;;;18.20;34.00;;;;;;6293943;28;20123;-76
2021/01/20 11:58:20;;;;;;;2.80;0.57;;;18.30;34.10;;;;;;6264573;28;20029;-76
2021/01/20 12:01:22;;;;;;;3.10;0.55;;;18.40;34.00;;;;;;6265062;28;20103;-77
2021/01/20 12:04:32;;;;;;;3.30;1.42;;;18.50;33.40;;;;;;6267449;28;20462;-75
2021/01/20 12:07:33;;;;;;;3.40;0.60;;;18.70;33.60;;;;;;6292851;28;20044;-75
2021/01/20 12:10:34;;;;;;;1.27;0.40;;;18.90;33.20;;;;;;6295433;28;20036;-75
2021/01/20 12:13:35;;;;;;;6.60;0.93;;;18.90;33.00;;;;;;6295383;28;20043;-80
2021/01/20 12:16:36;;;;;;;1.58;0.45;;;18.80;33.10;;;;;;6290542;28;20043;-76
2021/01/20 12:19:37;;;;;;;1.42;0.47;;;18.80;32.90;;;;;;6294168;28;20036;-78
2021/01/20 12:22:38;;;;;;;0.35;0.30;;;18.80;32.60;;;;;;6302866;28;20442;-72
2021/01/20 12:25:39;;;;;;;2.05;0.47;;;18.70;33.50;;;;;;6305416;28;20050;-73
2021/01/20 12:28:40;;;;;;;2.05;0.47;;;18.70;32.50;;;;;;6312034;28;20032;-73
2021/01/20 12:31:40;;;;;;;5.35;1.15;;;18.60;32.80;;;;;;6315953;28;20044;-73
2021/01/20 12:34:41;;;;;;;0.55;0.43;;;18.50;32.10;;;;;;6316861;28;20046;-76
2021/01/20 12:37:42;;;;;;;3.90;0.52;;;18.50;32.10;;;;;;6335523;28;20029;-74
2021/01/20 12:40:43;;;;;;;1.95;0.60;;;18.50;32.60;;;;;;6297230;28;20091;-75
2021/01/20 12:43:44;;;;;;;1.02;0.47;;;18.50;32.60;;;;;;6278172;28;20038;-75
2021/01/20 12:46:45;;;;;;;1.13;0.40;;;18.50;32.60;;;;;;6322473;28;20351;-74
2021/01/20 12:49:46;;;;;;;4.30;0.43;;;18.40;31.90;;;;;;6284933;28;20033;-75
2021/01/20 12:52:47;;;;;;;1.73;0.40;;;18.40;32.30;;;;;;6299301;28;20041;-78
2021/01/20 12:55:49;;;;;;;4.68;0.60;;;18.30;31.90;;;;;;6276786;28;20032;-77
2021/01/20 12:58:50;;;;;;;0.85;0.52;;;18.30;32.00;;;;;;6292736;28;20071;-78
2021/01/20 13:01:51;;;;;;;3.22;0.50;;;18.40;32.30;;;;;;6327313;28;20054;-76
2021/01/20 13:04:52;;;;;;;8.95;0.70;;;18.30;32.20;;;;;;6266725;28;20102;-77
2021/01/20 13:07:53;;;;;;;0.85;0.38;;;18.40;32.50;;;;;;6284306;28;20033;-79
2021/01/20 13:10:54;;;;;;;8.85;0.95;;;18.40;32.40;;;;;;6291167;28;20041;-78
2021/01/20 13:13:55;;;;;;;1.90;0.40;;;18.40;32.10;;;;;;6281507;28;20548;-76
2021/01/20 13:16:56;;;;;;;2.15;0.60;;;18.40;32.00;;;;;;6325570;28;20126;-77
2021/01/20 13:19:57;;;;;;;1.02;0.43;;;18.40;31.90;;;;;;6286314;28;20511;-76
2021/01/20 13:22:58;;;;;;;1.45;0.50;;;18.50;31.90;;;;;;6291278;28;20080;-76
2021/01/20 13:25:59;;;;;;;0.68;0.47;;;18.40;31.50;;;;;;6271025;28;20059;-76
2021/01/20 13:29:00;;;;;;;3.00;1.10;;;18.40;31.60;;;;;;6254267;28;20140;-76
2021/01/20 13:32:01;;;;;;;0.88;0.52;;;18.40;31.40;;;;;;6264084;28;20128;-76
2021/01/20 13:35:02;;;;;;;2.38;0.43;;;18.40;31.20;;;;;;6290096;28;20102;-76
2021/01/20 13:38:04;;;;;;;5.68;0.47;;;18.40;31.30;;;;;;6327045;28;20036;-76
2021/01/20 13:41:07;;;;;;;4.68;0.68;;;18.40;31.40;;;;;;6276933;28;20041;-76
2021/01/20 13:44:09;;;;;;;2.45;0.60;;;18.50;31.60;;;;;;6306982;28;20029;-75
2021/01/20 13:47:10;;;;;;;4.70;0.40;;;18.50;31.60;;;;;;6275682;28;20048;-75
2021/01/20 13:50:11;;;;;;;1.35;0.40;;;18.50;31.70;;;;;;6288698;28;20059;-73
2021/01/20 13:53:13;;;;;;;0.63;0.40;;;18.60;31.80;;;;;;6277793;28;20535;-75
2021/01/20 13:56:14;;;;;;;2.55;0.63;;;18.50;31.60;;;;;;6265986;28;20037;-75
2021/01/20 13:59:16;;;;;;;0.63;0.47;;;18.50;31.30;;;;;;6251653;28;20098;-76
2021/01/20 14:02:17;;;;;;;2.13;0.40;;;18.50;31.60;;;;;;6273819;28;20040;-76
2021/01/20 14:05:18;;;;;;;0.73;0.28;;;18.40;31.40;;;;;;6300639;28;20041;-76
2021/01/20 14:08:19;;;;;;;3.58;0.43;;;18.40;31.40;;;;;;6318467;28;20368;-74
2021/01/20 14:11:20;;;;;;;3.42;0.50;;;18.40;31.50;;;;;;6298830;28;20039;-74
2021/01/20 14:14:21;;;;;;;1.15;0.68;;;18.40;31.60;;;;;;6297851;28;20484;-74
2021/01/20 14:17:22;;;;;;;0.85;0.52;;;18.40;31.80;;;;;;6297543;28;20063;-74
2021/01/20 14:20:23;;;;;;;3.22;0.55;;;18.40;31.90;;;;;;6296197;28;20039;-74
2021/01/20 14:23:24;;;;;;;1.83;0.88;;;18.40;31.70;;;;;;6282702;28;20056;-74
2021/01/20 14:26:25;;;;;;;2.00;0.65;;;18.40;31.90;;;;;;6283583;28;20051;-74
2021/01/20 14:29:26;;;;;;;2.03;0.40;;;18.20;31.80;;;;;;6325702;27;20076;-73
2021/01/20 14:32:27;;;;;;;0.50;0.22;;;18.20;32.30;;;;;;6303221;28;20056;-73
2021/01/20 14:35:28;;;;;;;1.52;0.40;;;18.10;32.20;;;;;;6297688;28;20052;-74
2021/01/20 14:38:29;;;;;;;1.63;0.40;;;18.10;32.40;;;;;;6292189;28;24711;-73
2021/01/20 14:41:31;;;;;;;1.85;0.40;;;18.00;32.50;;;;;;6288092;28;20450;-75
2021/01/20 14:44:32;;;;;;;0.47;0.40;;;17.90;33.20;;;;;;6302762;28;20318;-77
2021/01/20 14:47:33;;;;;;;0.50;0.40;;;17.90;32.90;;;;;;6273086;28;20047;-76
2021/01/20 14:50:34;;;;;;;0.40;0.40;;;17.90;33.00;;;;;;6281700;28;20033;-75
2021/01/20 14:53:35;;;;;;;0.70;0.30;;;17.90;33.10;;;;;;6295656;28;20052;-76
2021/01/20 14:56:40;;;;;;;0.57;0.30;;;17.90;32.80;;;;;;6308723;28;20037;-76
2021/01/20 14:59:40;;;;;;;0.30;0.30;;;17.80;32.70;;;;;;6303144;28;20106;-76
2021/01/20 15:02:41;;;;;;;0.25;0.17;;;17.70;32.50;;;;;;6294512;28;20457;-75
2021/01/20 15:05:44;;;;;;;1.45;0.47;;;17.60;32.50;;;;;;6276365;28;20116;-74
2021/01/20 15:08:45;;;;;;;3.03;0.65;;;17.60;32.80;;;;;;6281496;28;20028;-73
2021/01/20 15:11:47;;;;;;;2.90;0.50;;;17.60;32.60;;;;;;6285644;28;20064;-73
2021/01/20 15:14:48;;;;;;;4.65;0.65;;;17.60;32.70;;;;;;6288072;28;20342;-73
2021/01/20 15:17:49;;;;;;;0.28;0.28;;;17.60;32.40;;;;;;6312043;28;20066;-74
2021/01/20 15:20:56;;;;;;;1.27;0.40;;;17.60;32.60;;;;;;6279513;28;20079;-75
2021/01/20 15:23:57;;;;;;;0.73;0.40;;;17.60;32.30;;;;;;6265307;28;20134;-74
2021/01/20 15:26:58;;;;;;;4.38;0.73;;;17.50;32.30;;;;;;6273096;28;20143;-74
2021/01/20 15:29:59;;;;;;;4.35;0.52;;;17.50;32.10;;;;;;6280964;28;20033;-74
2021/01/20 15:33:00;;;;;;;2.42;0.65;;;17.50;32.00;;;;;;6220646;28;20465;-74
2021/01/20 15:36:02;;;;;;;1.88;1.08;;;17.40;32.00;;;;;;6244844;28;20076;-74
2021/01/20 15:39:06;;;;;;;3.55;0.60;;;17.40;31.70;;;;;;6277485;28;20035;-73
2021/01/20 15:42:08;;;;;;;2.65;0.63;;;17.40;31.70;;;;;;6281621;28;20137;-74
2021/01/20 15:45:09;;;;;;;1.35;0.45;;;17.40;31.90;;;;;;6291402;28;20036;-74
2021/01/20 15:48:12;;;;;;;0.50;0.40;;;17.30;32.00;;;;;;6284800;28;20094;-74
2021/01/20 15:51:14;;;;;;;1.80;0.60;;;17.30;32.20;;;;;;6275668;28;20041;-74
2021/01/20 15:54:15;;;;;;;0.50;0.32;;;17.30;32.00;;;;;;6286448;28;20041;-74
2021/01/20 15:57:16;;;;;;;2.17;0.70;;;17.30;32.10;;;;;;6281050;28;20431;-75
2021/01/20 16:00:17;;;;;;;0.40;0.40;;;17.30;32.20;;;;;;6259757;28;20528;-74
2021/01/20 16:03:19;;;;;;;1.73;0.90;;;17.30;32.30;;;;;;6266006;28;20463;-75
2021/01/20 16:06:22;;;;;;;1.00;0.40;;;17.30;32.30;;;;;;6279655;28;20385;-74
2021/01/20 16:09:24;;;;;;;3.85;0.50;;;17.20;31.80;;;;;;6295092;28;20106;-72